Time;durP1;ratioP1;P1;durP2;ratioP2;P2;SDS_P1;SDS_P2;PMS_P1;PMS_P2;Temp;Humidity;BMP_temperature;BMP_pressure;BME280_temperature;BME280_humidity;BME280_pressure;Samples;Min_cycle;Max_cycle;Signal;HPM_P1;HPM_P2
2024/01/26 00:00:45;;;;;;;89.13;22.25;;;8.10;99.90;;;;;;4865307;29;20049;-77
2024/01/26 00:03:12;;;;;;;105.97;25.85;;;8.10;99.90;;;;;;4865247;29;20077;-77
2024/01/26 00:05:38;;;;;;;97.38;22.65;;;8.10;99.90;;;;;;4865507;29;20131;-77
2024/01/26 00:08:07;;;;;;;93.93;20.75;;;8.10;99.90;;;;;;4865129;29;20468;-77
2024/01/26 00:10:34;;;;;;;92.60;21.33;;;8.10;99.90;;;;;;4879687;29;20112;-77
2024/01/26 00:13:02;;;;;;;92.53;21.45;;;8.20;99.90;;;;;;4865291;29;20060;-77
2024/01/26 00:15:27;;;;;;;75.55;20.88;;;8.10;99.90;;;;;;4865345;29;20490;-77
2024/01/26 00:17:53;;;;;;;75.20;20.10;;;8.20;99.90;;;;;;4865046;29;20053;-77
2024/01/26 00:20:18;;;;;;;71.03;17.67;;;8.20;99.90;;;;;;4864997;29;20140;-77
2024/01/26 00:22:44;;;;;;;78.93;20.95;;;8.20;99.90;;;;;;4864928;29;20049;-77
2024/01/26 00:25:10;;;;;;;65.10;19.17;;;8.10;99.90;;;;;;4865238;29;20053;-77
2024/01/26 00:27:36;;;;;;;71.05;20.63;;;8.20;99.90;;;;;;4881643;29;20473;-77
2024/01/26 00:30:04;;;;;;;69.13;20.23;;;8.20;99.90;;;;;;4881487;29;20451;-77
2024/01/26 00:32:29;;;;;;;74.90;21.55;;;8.20;99.90;;;;;;4864893;29;20101;-77
2024/01/26 00:34:55;;;;;;;77.47;20.50;;;8.20;99.90;;;;;;4881393;29;20049;-77
2024/01/26 00:37:26;;;;;;;67.35;20.10;;;8.10;99.90;;;;;;4864612;29;20402;-77
2024/01/26 00:39:52;;;;;;;74.72;21.23;;;8.20;99.90;;;;;;4864996;29;20124;-77
2024/01/26 00:42:17;;;;;;;72.25;21.85;;;8.20;99.90;;;;;;4864597;29;20486;-77
2024/01/26 00:44:43;;;;;;;76.75;21.48;;;8.20;99.90;;;;;;4864737;29;20101;-77
2024/01/26 00:47:09;;;;;;;68.60;20.77;;;8.20;99.90;;;;;;4864733;29;20056;-77
2024/01/26 00:49:35;;;;;;;65.15;21.52;;;8.20;99.90;;;;;;4881291;29;20128;-77
2024/01/26 00:52:00;;;;;;;60.30;19.77;;;8.20;99.90;;;;;;4881252;29;20133;-77
2024/01/26 00:54:26;;;;;;;63.47;21.25;;;8.30;99.90;;;;;;4864750;29;20052;-77
2024/01/26 00:56:52;;;;;;;50.20;18.50;;;8.30;99.90;;;;;;4864802;29;20053;-77
2024/01/26 00:59:17;;;;;;;63.53;22.23;;;8.30;99.90;;;;;;4879930;29;20397;-77
2024/01/26 01:01:43;;;;;;;55.03;19.80;;;8.30;99.90;;;;;;4864198;29;20045;-77
2024/01/26 01:04:08;;;;;;;58.30;19.38;;;8.30;99.90;;;;;;4864490;29;20057;-77
2024/01/26 01:06:34;;;;;;;52.78;18.52;;;8.30;99.90;;;;;;4864592;29;20052;-77
2024/01/26 01:09:00;;;;;;;62.90;20.25;;;8.30;99.90;;;;;;4881059;29;20529;-77
2024/01/26 01:11:27;;;;;;;50.35;18.00;;;8.30;99.90;;;;;;4880638;29;20096;-77
2024/01/26 01:13:59;;;;;;;51.20;17.52;;;8.30;99.90;;;;;;4864053;29;20052;-77
2024/01/26 01:16:24;;;;;;;55.17;17.58;;;8.30;99.90;;;;;;4863994;29;20057;-77
2024/01/26 01:18:50;;;;;;;48.65;16.75;;;8.30;99.90;;;;;;4864236;29;20135;-77
2024/01/26 01:21:16;;;;;;;44.33;16.67;;;8.30;99.90;;;;;;4864051;29;20041;-77
2024/01/26 01:23:41;;;;;;;45.05;15.88;;;8.30;99.90;;;;;;4864233;29;20057;-77
2024/01/26 01:26:08;;;;;;;45.60;14.32;;;8.30;99.90;;;;;;4863955;29;20067;-77
2024/01/26 01:28:33;;;;;;;44.00;15.88;;;8.30;99.90;;;;;;4863871;29;20057;-77
2024/01/26 01:31:00;;;;;;;47.47;16.05;;;8.30;99.90;;;;;;4863717;29;20055;-77
2024/01/26 01:33:25;;;;;;;46.10;16.25;;;8.30;99.90;;;;;;4863969;29;20057;-77
2024/01/26 01:35:54;;;;;;;41.00;14.70;;;8.30;99.90;;;;;;4863795;29;20406;-77
2024/01/26 01:38:19;;;;;;;39.40;14.05;;;8.40;99.90;;;;;;4863972;29;20052;-77
2024/01/26 01:40:45;;;;;;;37.63;13.95;;;8.40;99.90;;;;;;4863560;29;20417;-77
2024/01/26 01:43:17;;;;;;;40.20;14.85;;;8.40;99.90;;;;;;4863467;29;20496;-77
2024/01/26 01:45:43;;;;;;;38.05;14.50;;;8.40;99.90;;;;;;4880223;29;20109;-77
2024/01/26 01:48:09;;;;;;;35.95;13.38;;;8.40;99.90;;;;;;4863506;29;20041;-77
2024/01/26 01:50:34;;;;;;;34.00;13.55;;;8.40;99.90;;;;;;4863649;29;20049;-77
2024/01/26 01:53:07;;;;;;;33.65;13.30;;;8.40;99.90;;;;;;4863532;29;20049;-77
2024/01/26 01:55:34;;;;;;;32.38;12.02;;;8.40;99.90;;;;;;4880256;29;20063;-77
2024/01/26 01:58:03;;;;;;;29.95;11.93;;;8.40;99.90;;;;;;4878836;29;20077;-77
2024/01/26 02:00:30;;;;;;;28.25;11.27;;;8.40;99.90;;;;;;4863532;29;20094;-77
2024/01/26 02:02:55;;;;;;;29.42;12.55;;;8.40;99.90;;;;;;4878693;29;20524;-77
2024/01/26 02:05:21;;;;;;;28.88;12.02;;;8.40;99.90;;;;;;4863354;29;20049;-77
2024/01/26 02:07:50;;;;;;;26.63;11.95;;;8.50;99.90;;;;;;4880049;29;20053;-77
2024/01/26 02:10:18;;;;;;;27.23;11.20;;;8.40;99.90;;;;;;4879779;29;20064;-77
2024/01/26 02:12:45;;;;;;;30.50;12.15;;;8.40;99.90;;;;;;4863343;29;20136;-77
2024/01/26 02:15:10;;;;;;;29.10;12.77;;;8.40;99.90;;;;;;4863386;29;20131;-77
2024/01/26 02:17:36;;;;;;;29.33;11.25;;;8.50;99.90;;;;;;4863284;29;20576;-77
2024/01/26 02:20:06;;;;;;;29.55;11.40;;;8.50;99.90;;;;;;4863390;29;20053;-77
2024/01/26 02:22:32;;;;;;;28.88;13.15;;;8.50;99.90;;;;;;4863010;29;20110;-77
2024/01/26 02:24:58;;;;;;;26.40;9.75;;;8.50;99.90;;;;;;4862963;29;20434;-77
2024/01/26 02:27:24;;;;;;;24.98;10.98;;;8.50;99.90;;;;;;4863084;29;20477;-77
2024/01/26 02:29:49;;;;;;;31.17;12.85;;;8.50;99.90;;;;;;4863082;29;20128;-77
2024/01/26 02:32:15;;;;;;;30.75;12.63;;;8.50;99.90;;;;;;4863113;29;20063;-77
2024/01/26 02:34:41;;;;;;;27.58;12.00;;;8.50;99.90;;;;;;4865810;29;20048;-77
2024/01/26 02:37:09;;;;;;;28.58;13.98;;;8.50;99.90;;;;;;4867097;29;20100;-77
2024/01/26 02:39:35;;;;;;;31.65;13.95;;;8.60;99.90;;;;;;4866758;29;20042;-77
2024/01/26 02:42:00;;;;;;;30.75;14.02;;;8.50;99.90;;;;;;4866552;29;20097;-77
2024/01/26 02:44:26;;;;;;;31.75;14.23;;;8.50;99.90;;;;;;4867179;29;20041;-77
2024/01/26 02:46:52;;;;;;;33.10;15.98;;;8.50;99.90;;;;;;4867027;29;20462;-77
2024/01/26 02:49:17;;;;;;;35.28;15.80;;;8.50;99.90;;;;;;4866651;29;20045;-77
2024/01/26 02:51:43;;;;;;;35.63;16.50;;;8.50;99.90;;;;;;4866672;29;20049;-77
2024/01/26 02:54:09;;;;;;;34.25;15.32;;;8.60;99.90;;;;;;4866527;29;20113;-77
2024/01/26 02:56:35;;;;;;;33.88;15.00;;;8.60;99.90;;;;;;4866657;29;20049;-77
2024/01/26 02:59:00;;;;;;;36.30;15.38;;;8.60;99.90;;;;;;4866497;29;20121;-77
2024/01/26 03:01:26;;;;;;;37.53;16.17;;;8.60;99.90;;;;;;4866405;29;20084;-77
2024/01/26 03:03:51;;;;;;;37.78;17.50;;;8.60;99.90;;;;;;4866451;29;20049;-77
2024/01/26 03:06:18;;;;;;;36.10;17.15;;;8.80;99.90;;;;;;4866662;29;20084;-76
2024/01/26 03:08:43;;;;;;;34.55;15.68;;;8.80;99.90;;;;;;4866410;29;20053;-77
2024/01/26 03:11:12;;;;;;;37.15;16.25;;;8.90;99.90;;;;;;4866061;29;20084;-77
2024/01/26 03:13:41;;;;;;;37.20;16.10;;;8.80;99.90;;;;;;4866202;29;20068;-77
2024/01/26 03:16:06;;;;;;;36.95;16.25;;;8.90;99.90;;;;;;4866141;29;20522;-77
2024/01/26 03:18:32;;;;;;;38.95;17.25;;;8.90;99.90;;;;;;4882927;29;20481;-77
2024/01/26 03:20:57;;;;;;;39.42;16.77;;;9.00;99.90;;;;;;4865878;29;20510;-77
2024/01/26 03:23:23;;;;;;;39.55;17.45;;;9.00;99.90;;;;;;4866248;29;20060;-77
2024/01/26 03:25:49;;;;;;;36.05;14.73;;;9.00;99.90;;;;;;4865915;29;20048;-77
2024/01/26 03:28:14;;;;;;;35.78;15.90;;;9.00;99.90;;;;;;4866179;29;20056;-77
2024/01/26 03:30:42;;;;;;;39.70;18.35;;;9.10;99.90;;;;;;4882693;29;20417;-77
2024/01/26 03:33:11;;;;;;;32.30;15.18;;;9.10;99.90;;;;;;4866104;29;20055;-77
2024/01/26 03:35:36;;;;;;;38.53;18.42;;;9.10;99.90;;;;;;4866137;29;20056;-77
2024/01/26 03:38:02;;;;;;;37.90;16.58;;;9.10;99.90;;;;;;4865843;29;20543;-77
2024/01/26 03:40:28;;;;;;;44.47;18.02;;;9.10;99.90;;;;;;4865907;29;20513;-77
2024/01/26 03:42:54;;;;;;;43.78;18.27;;;9.10;99.90;;;;;;4881136;29;20084;-77
2024/01/26 03:45:19;;;;;;;39.33;16.70;;;9.10;99.90;;;;;;4864611;29;20045;-77
2024/01/26 03:47:45;;;;;;;40.28;16.10;;;9.10;99.90;;;;;;4865664;29;20169;-77
2024/01/26 03:50:11;;;;;;;39.60;17.08;;;9.20;99.90;;;;;;4865466;29;20125;-77
2024/01/26 03:52:37;;;;;;;48.40;18.42;;;9.20;99.90;;;;;;4865425;29;20108;-77
2024/01/26 03:55:06;;;;;;;41.10;17.20;;;9.20;99.90;;;;;;4882203;29;20082;-77
2024/01/26 03:57:32;;;;;;;43.83;17.67;;;9.20;99.90;;;;;;4865547;29;20053;-77
2024/01/26 03:59:58;;;;;;;41.45;18.00;;;9.20;99.90;;;;;;4881277;29;20458;-77
2024/01/26 04:02:23;;;;;;;42.45;17.05;;;9.20;99.90;;;;;;4865590;29;20053;-77
2024/01/26 04:04:49;;;;;;;42.83;17.08;;;9.20;99.90;;;;;;4865423;29;20049;-77
2024/01/26 04:07:17;;;;;;;44.60;17.48;;;9.30;99.90;;;;;;4865145;29;20056;-77
2024/01/26 04:09:47;;;;;;;51.28;19.02;;;9.30;99.90;;;;;;4865115;29;20056;-77
2024/01/26 04:12:12;;;;;;;47.65;18.10;;;9.30;99.90;;;;;;4865166;29;20478;-77
2024/01/26 04:14:38;;;;;;;57.70;22.60;;;9.30;99.90;;;;;;4880867;29;20056;-77
2024/01/26 04:17:03;;;;;;;48.33;20.10;;;9.30;99.90;;;;;;4865265;29;20059;-77
2024/01/26 04:19:29;;;;;;;51.08;20.08;;;9.40;99.90;;;;;;4865219;29;20060;-77
2024/01/26 04:21:55;;;;;;;52.17;22.15;;;9.40;99.90;;;;;;4864932;29;20053;-76
2024/01/26 04:24:20;;;;;;;50.08;20.63;;;9.40;99.90;;;;;;4864974;29;20141;-76
2024/01/26 04:26:46;;;;;;;50.15;22.02;;;9.40;99.90;;;;;;4881583;29;20049;-77
2024/01/26 04:29:11;;;;;;;50.50;22.63;;;9.40;99.90;;;;;;4865227;29;20049;-77
2024/01/26 04:31:41;;;;;;;47.70;19.65;;;9.40;99.90;;;;;;4865187;29;20057;-76
2024/01/26 04:34:07;;;;;;;51.90;20.98;;;9.50;99.90;;;;;;4864913;29;20049;-77
2024/01/26 04:36:33;;;;;;;48.42;20.58;;;9.50;99.90;;;;;;4864703;29;20362;-77
2024/01/26 04:38:59;;;;;;;51.25;21.95;;;9.50;99.90;;;;;;4864659;29;20052;-77
2024/01/26 04:41:25;;;;;;;46.78;20.33;;;9.60;99.90;;;;;;4864834;29;20072;-77
2024/01/26 04:43:51;;;;;;;44.10;20.58;;;9.60;99.90;;;;;;4880432;29;20377;-77
2024/01/26 04:46:16;;;;;;;47.63;21.77;;;9.60;99.90;;;;;;4864845;29;20387;-77
2024/01/26 04:48:42;;;;;;;45.83;20.35;;;9.60;99.90;;;;;;4864762;29;20045;-77
2024/01/26 04:51:08;;;;;;;51.58;22.75;;;9.60;99.90;;;;;;4864479;29;20397;-77
2024/01/26 04:53:33;;;;;;;49.03;22.08;;;9.60;99.90;;;;;;4864549;29;20061;-77
2024/01/26 04:56:01;;;;;;;49.72;21.92;;;9.60;99.90;;;;;;4864349;29;20049;-77
2024/01/26 04:58:26;;;;;;;46.33;21.05;;;9.60;99.90;;;;;;4864353;29;20081;-77
2024/01/26 05:00:52;;;;;;;45.78;21.85;;;9.70;99.90;;;;;;4864359;29;20053;-77
2024/01/26 05:03:18;;;;;;;48.75;21.30;;;9.70;99.90;;;;;;4881323;29;20056;-77
2024/01/26 05:05:44;;;;;;;47.55;20.65;;;9.70;99.90;;;;;;4880903;29;20052;-76
2024/01/26 05:08:09;;;;;;;47.58;22.13;;;9.70;99.90;;;;;;4864203;29;20081;-76
2024/01/26 05:10:36;;;;;;;41.72;19.77;;;9.80;99.90;;;;;;4864063;29;20049;-77
2024/01/26 05:13:02;;;;;;;47.17;19.75;;;9.80;99.90;;;;;;4864112;29;20546;-76
2024/01/26 05:15:28;;;;;;;43.97;19.35;;;9.80;99.90;;;;;;4864280;29;20057;-77
2024/01/26 05:17:56;;;;;;;39.38;19.15;;;9.80;99.90;;;;;;4864230;29;20180;-78
2024/01/26 05:20:22;;;;;;;39.72;18.55;;;9.80;99.90;;;;;;4864193;29;20056;-78
2024/01/26 05:22:48;;;;;;;37.03;17.90;;;9.80;99.90;;;;;;4863826;29;20051;-78
2024/01/26 05:25:13;;;;;;;35.75;17.70;;;9.80;99.90;;;;;;4863967;29;20049;-78
2024/01/26 05:27:41;;;;;;;42.63;20.10;;;9.80;99.90;;;;;;4863908;29;20075;-77
2024/01/26 05:30:07;;;;;;;35.72;16.45;;;9.80;99.90;;;;;;4864005;29;20127;-77
2024/01/26 05:32:33;;;;;;;42.40;22.13;;;9.80;99.90;;;;;;4863890;29;20049;-78
2024/01/26 05:34:58;;;;;;;36.85;18.45;;;9.90;99.90;;;;;;4880571;29;20041;-78
2024/01/26 05:37:24;;;;;;;41.25;19.13;;;9.90;99.90;;;;;;4880499;29;20052;-78
2024/01/26 05:39:49;;;;;;;42.72;22.13;;;9.90;99.90;;;;;;4880360;29;20049;-78
2024/01/26 05:42:15;;;;;;;39.25;18.70;;;9.90;99.90;;;;;;4863751;29;20084;-77
2024/01/26 05:44:41;;;;;;;41.20;19.27;;;9.90;99.90;;;;;;4863679;29;20132;-78
2024/01/26 05:47:06;;;;;;;41.42;18.25;;;9.90;99.90;;;;;;4863710;29;20044;-78
2024/01/26 05:49:33;;;;;;;40.75;18.73;;;10.00;99.90;;;;;;4862847;29;20053;-78
2024/01/26 05:51:59;;;;;;;38.05;18.40;;;9.90;99.90;;;;;;4863603;29;20501;-78
2024/01/26 05:54:25;;;;;;;37.08;16.75;;;10.00;99.90;;;;;;4863805;29;20541;-79
2024/01/26 05:56:50;;;;;;;38.17;17.42;;;10.00;99.90;;;;;;4863564;29;20386;-79
2024/01/26 05:59:16;;;;;;;33.05;16.73;;;10.00;99.90;;;;;;4863458;29;20447;-79
2024/01/26 06:01:41;;;;;;;29.05;16.83;;;10.00;99.90;;;;;;4863320;29;20052;-78
2024/01/26 06:04:08;;;;;;;26.52;14.90;;;10.00;99.90;;;;;;4863320;29;20136;-78
2024/01/26 06:06:33;;;;;;;24.13;12.98;;;10.00;99.90;;;;;;4863631;29;20064;-78
2024/01/26 06:08:59;;;;;;;25.33;13.77;;;10.00;99.90;;;;;;4862799;29;20049;-78
2024/01/26 06:11:26;;;;;;;26.63;13.30;;;10.00;99.90;;;;;;4863232;29;20092;-78
2024/01/26 06:13:52;;;;;;;25.52;14.05;;;10.00;99.90;;;;;;4863185;29;20064;-78
2024/01/26 06:16:19;;;;;;;27.15;14.25;;;10.00;99.90;;;;;;4863234;29;20167;-79
2024/01/26 06:18:57;;;;;;;26.77;14.02;;;10.00;99.90;;;;;;4863177;29;20156;-79
2024/01/26 06:21:23;;;;;;;27.63;14.30;;;10.00;99.90;;;;;;4863322;29;20128;-79
2024/01/26 06:23:48;;;;;;;30.63;16.42;;;10.00;99.90;;;;;;4863118;29;20147;-79
2024/01/26 06:26:14;;;;;;;36.40;14.73;;;10.00;99.90;;;;;;4879872;29;20055;-79
2024/01/26 06:28:40;;;;;;;32.50;14.10;;;10.00;99.90;;;;;;4879888;29;20481;-79
2024/01/26 06:31:05;;;;;;;31.80;13.93;;;10.00;99.90;;;;;;4863022;29;20109;-79
2024/01/26 06:33:31;;;;;;;26.15;13.98;;;10.00;99.90;;;;;;4879534;29;20128;-79
2024/01/26 06:35:57;;;;;;;26.02;12.80;;;10.00;99.90;;;;;;4863190;29;20057;-79
2024/01/26 06:38:22;;;;;;;21.67;11.98;;;10.00;99.90;;;;;;4863131;29;20041;-79
2024/01/26 06:40:48;;;;;;;25.75;11.05;;;10.10;99.90;;;;;;4879655;29;20254;-79
2024/01/26 06:43:16;;;;;;;21.23;11.05;;;10.10;99.90;;;;;;4862929;29;20056;-79
2024/01/26 06:45:42;;;;;;;27.17;12.65;;;10.10;99.90;;;;;;4879735;29;20389;-79
2024/01/26 06:48:08;;;;;;;20.42;10.80;;;10.10;99.90;;;;;;4862942;29;20128;-79
2024/01/26 06:50:38;;;;;;;23.30;10.80;;;10.10;99.90;;;;;;4863191;29;20132;-79
2024/01/26 06:53:04;;;;;;;18.63;10.48;;;10.10;99.90;;;;;;4879679;29;20512;-79
2024/01/26 06:55:29;;;;;;;18.38;9.75;;;10.10;99.90;;;;;;4878502;29;20056;-79
2024/01/26 06:57:56;;;;;;;19.90;9.15;;;10.20;99.90;;;;;;4879667;29;20044;-79
2024/01/26 07:00:25;;;;;;;22.63;10.55;;;10.20;99.90;;;;;;4879625;29;20053;-79
2024/01/26 07:02:51;;;;;;;17.73;10.07;;;10.10;99.90;;;;;;4862720;29;20053;-79
2024/01/26 07:05:16;;;;;;;19.23;11.00;;;10.10;99.90;;;;;;4862689;29;20152;-79
2024/01/26 07:07:45;;;;;;;21.65;10.40;;;10.10;99.90;;;;;;4863183;29;20053;-79
2024/01/26 07:10:12;;;;;;;19.70;10.65;;;10.10;99.90;;;;;;4879285;29;20056;-79
2024/01/26 07:12:37;;;;;;;20.48;11.35;;;10.10;99.90;;;;;;4862636;29;20390;-79
2024/01/26 07:15:04;;;;;;;19.75;10.38;;;10.10;99.90;;;;;;4879279;29;20512;-78
2024/01/26 07:17:30;;;;;;;20.10;11.13;;;10.10;99.90;;;;;;4879838;29;20060;-79
2024/01/26 07:19:55;;;;;;;20.10;11.43;;;10.10;99.90;;;;;;4864085;29;20052;-79
2024/01/26 07:22:21;;;;;;;20.98;11.27;;;10.00;99.90;;;;;;4866065;29;20136;-78
2024/01/26 07:24:46;;;;;;;21.42;11.25;;;10.10;99.90;;;;;;4865912;29;20477;-79
2024/01/26 07:27:12;;;;;;;24.13;11.70;;;10.00;99.90;;;;;;4865974;29;20060;-79
2024/01/26 07:29:38;;;;;;;23.00;12.02;;;10.00;99.90;;;;;;4882607;29;20056;-79
2024/01/26 07:32:06;;;;;;;24.17;12.80;;;10.00;99.90;;;;;;4882485;29;20493;-79
2024/01/26 07:34:32;;;;;;;22.98;11.80;;;10.00;99.90;;;;;;4882686;29;20053;-79
2024/01/26 07:36:57;;;;;;;24.15;13.77;;;10.00;99.90;;;;;;4882485;29;20045;-78
2024/01/26 07:39:23;;;;;;;26.38;12.45;;;10.00;99.90;;;;;;4882536;29;20374;-78
2024/01/26 07:41:49;;;;;;;23.75;13.35;;;10.00;99.90;;;;;;4882447;29;20060;-78
2024/01/26 07:44:14;;;;;;;25.30;12.73;;;10.00;99.90;;;;;;4881338;29;20370;-78
2024/01/26 07:46:43;;;;;;;23.40;12.93;;;9.90;99.90;;;;;;4865672;29;20053;-78
2024/01/26 07:49:08;;;;;;;24.42;13.32;;;10.00;99.90;;;;;;4882268;29;20060;-77
2024/01/26 07:51:34;;;;;;;24.90;12.70;;;10.00;99.90;;;;;;4882371;29;20136;-77
2024/01/26 07:53:59;;;;;;;23.60;11.57;;;10.00;99.90;;;;;;4882088;29;20125;-77
2024/01/26 07:56:25;;;;;;;22.85;12.35;;;10.10;99.90;;;;;;4865674;29;20045;-78
2024/01/26 07:58:50;;;;;;;22.95;12.00;;;10.10;99.90;;;;;;4864879;29;20088;-77
2024/01/26 08:01:16;;;;;;;23.27;11.85;;;10.10;99.90;;;;;;4882052;29;20053;-78
2024/01/26 08:03:42;;;;;;;20.35;10.48;;;10.00;99.90;;;;;;4865201;29;20077;-80
2024/01/26 08:06:07;;;;;;;18.45;10.15;;;10.10;99.90;;;;;;4881675;29;20060;-78
2024/01/26 08:08:33;;;;;;;19.70;10.35;;;10.10;99.90;;;;;;4858530;29;20041;-79
2024/01/26 08:11:01;;;;;;;17.73;8.93;;;10.10;99.90;;;;;;4850304;29;20069;-76
2024/01/26 08:13:26;;;;;;;19.50;8.15;;;10.20;99.90;;;;;;4846293;29;20069;-76
2024/01/26 08:15:52;;;;;;;22.40;8.15;;;10.10;99.90;;;;;;4846427;29;20054;-77
2024/01/26 08:18:18;;;;;;;24.67;7.68;;;10.10;99.90;;;;;;4846282;29;20049;-77
2024/01/26 08:20:43;;;;;;;20.90;7.47;;;10.20;99.90;;;;;;4862892;29;20052;-77
2024/01/26 08:23:09;;;;;;;20.52;7.82;;;10.20;99.90;;;;;;4846076;29;20553;-78
2024/01/26 08:25:35;;;;;;;19.85;6.82;;;10.20;99.90;;;;;;4862985;29;20503;-78
2024/01/26 08:28:00;;;;;;;20.42;6.60;;;10.20;99.90;;;;;;4846403;29;20054;-78
2024/01/26 08:30:26;;;;;;;19.02;6.80;;;10.20;99.90;;;;;;4862689;29;20418;-78
2024/01/26 08:32:52;;;;;;;24.88;7.30;;;10.20;99.90;;;;;;4845508;29;20049;-78
2024/01/26 08:35:17;;;;;;;22.15;6.72;;;10.20;99.90;;;;;;4856215;29;20185;-78
2024/01/26 08:37:43;;;;;;;23.92;6.38;;;10.20;99.90;;;;;;4864652;29;20429;-78
2024/01/26 08:40:13;;;;;;;14.82;5.80;;;10.20;99.90;;;;;;4864566;29;20065;-76
2024/01/26 08:42:39;;;;;;;19.50;5.45;;;10.20;99.90;;;;;;4864377;29;20061;-76
2024/01/26 08:45:05;;;;;;;19.88;5.60;;;10.20;99.90;;;;;;4881236;29;20097;-76
2024/01/26 08:47:31;;;;;;;21.13;6.03;;;10.10;99.90;;;;;;4864498;29;20060;-77
2024/01/26 08:49:56;;;;;;;18.52;5.93;;;10.10;99.90;;;;;;4864091;29;20049;-77
2024/01/26 08:52:22;;;;;;;16.35;4.10;;;10.00;99.90;;;;;;4864173;29;20088;-82
2024/01/26 08:54:48;;;;;;;16.35;3.13;;;9.90;99.90;;;;;;4864184;29;20071;-78
2024/01/26 08:57:13;;;;;;;12.30;2.10;;;9.70;99.90;;;;;;4864381;29;20084;-78
2024/01/26 08:59:40;;;;;;;10.07;2.33;;;9.50;99.90;;;;;;4864266;29;20055;-78
2024/01/26 09:02:07;;;;;;;17.63;3.40;;;9.50;99.90;;;;;;4880763;29;20059;-77
2024/01/26 09:04:36;;;;;;;17.27;2.83;;;9.40;99.90;;;;;;4863811;29;20078;-77
2024/01/26 09:07:02;;;;;;;20.60;4.22;;;9.30;99.90;;;;;;4863850;29;20136;-76
2024/01/26 09:09:28;;;;;;;14.85;3.35;;;9.20;99.90;;;;;;4880420;29;20131;-77
2024/01/26 09:11:56;;;;;;;16.65;2.65;;;9.00;99.90;;;;;;4860479;29;20494;-77
2024/01/26 09:14:22;;;;;;;18.30;2.78;;;9.00;99.90;;;;;;4845357;29;20251;-76
2024/01/26 09:16:51;;;;;;;17.48;2.83;;;9.00;99.90;;;;;;4861691;29;20546;-76
2024/01/26 09:19:20;;;;;;;18.20;2.45;;;9.00;99.90;;;;;;4861714;29;20049;-77
2024/01/26 09:21:46;;;;;;;18.38;2.92;;;8.90;99.90;;;;;;4852214;29;20128;-77
2024/01/26 09:24:12;;;;;;;14.95;2.42;;;8.80;99.90;;;;;;4850104;29;20078;-77
2024/01/26 09:26:39;;;;;;;14.23;1.83;;;8.80;99.90;;;;;;4845128;29;20132;-77
2024/01/26 09:29:07;;;;;;;14.30;2.45;;;8.90;99.90;;;;;;4845103;29;20049;-77
2024/01/26 09:31:33;;;;;;;23.73;4.43;;;8.80;99.90;;;;;;4845215;29;20050;-77
2024/01/26 09:33:59;;;;;;;19.27;2.58;;;8.80;99.90;;;;;;4861559;29;20585;-77
2024/01/26 09:36:25;;;;;;;16.17;3.28;;;8.70;99.90;;;;;;4844902;29;20118;-77
2024/01/26 09:38:50;;;;;;;24.83;4.50;;;8.80;99.90;;;;;;4861730;29;20076;-78
2024/01/26 09:41:17;;;;;;;24.10;3.67;;;8.70;99.90;;;;;;4845068;29;20088;-77
2024/01/26 09:43:43;;;;;;;32.08;4.03;;;8.60;99.90;;;;;;4860859;29;20041;-78
2024/01/26 09:46:09;;;;;;;20.80;3.40;;;8.60;99.90;;;;;;4861332;29;20450;-78
2024/01/26 09:48:36;;;;;;;23.55;3.47;;;8.60;99.90;;;;;;4845013;29;20530;-78
2024/01/26 09:51:01;;;;;;;14.82;3.53;;;8.60;99.90;;;;;;4861663;29;20041;-77
2024/01/26 09:53:29;;;;;;;20.75;2.97;;;8.60;99.90;;;;;;4861307;29;20053;-77
2024/01/26 09:55:55;;;;;;;16.73;3.47;;;8.60;99.90;;;;;;4844740;29;20060;-78
2024/01/26 09:58:21;;;;;;;31.90;6.22;;;8.50;99.90;;;;;;4861434;29;20037;-77
2024/01/26 10:00:47;;;;;;;25.10;4.15;;;8.50;99.90;;;;;;4861402;29;20053;-77
2024/01/26 10:03:13;;;;;;;26.50;3.55;;;8.40;99.90;;;;;;4861050;29;20101;-78
2024/01/26 10:05:39;;;;;;;18.90;3.13;;;8.40;99.90;;;;;;4859929;29;20187;-77
2024/01/26 10:08:09;;;;;;;16.08;2.38;;;8.40;99.90;;;;;;4848894;29;20105;-77
2024/01/26 10:10:38;;;;;;;26.27;3.35;;;8.40;99.90;;;;;;4862634;29;20132;-76
2024/01/26 10:13:06;;;;;;;22.85;3.25;;;8.40;99.90;;;;;;4879782;29;20185;-77
2024/01/26 10:15:32;;;;;;;13.85;2.05;;;8.40;99.90;;;;;;4879443;29;20145;-76
2024/01/26 10:17:58;;;;;;;13.40;2.30;;;8.40;99.90;;;;;;4893887;29;20081;-76
2024/01/26 10:20:24;;;;;;;21.75;4.70;;;8.50;99.90;;;;;;4879766;29;20053;-76
2024/01/26 10:22:50;;;;;;;17.17;2.47;;;8.40;99.90;;;;;;4862690;29;20420;-77
2024/01/26 10:25:16;;;;;;;22.52;3.00;;;8.50;99.90;;;;;;4862841;29;20045;-76
2024/01/26 10:27:42;;;;;;;20.77;3.22;;;8.50;99.90;;;;;;4879674;29;20041;-77
2024/01/26 10:30:10;;;;;;;14.80;3.25;;;8.50;99.90;;;;;;4862690;29;20409;-77
2024/01/26 10:32:36;;;;;;;18.10;4.20;;;8.40;99.90;;;;;;4862969;29;20057;-76
2024/01/26 10:35:04;;;;;;;23.00;3.83;;;8.40;99.90;;;;;;4862660;29;20051;-76
2024/01/26 10:37:34;;;;;;;26.42;3.83;;;8.40;99.90;;;;;;4893993;29;20068;-75
2024/01/26 10:40:01;;;;;;;24.10;4.57;;;8.30;99.90;;;;;;4893942;29;20056;-76
2024/01/26 10:42:32;;;;;;;25.20;3.22;;;8.30;99.90;;;;;;4893656;29;20401;-77
2024/01/26 10:45:00;;;;;;;21.50;3.58;;;8.30;99.90;;;;;;4879465;29;20053;-76
2024/01/26 10:47:26;;;;;;;21.05;2.85;;;8.30;99.90;;;;;;4879608;29;20045;-77
2024/01/26 10:49:56;;;;;;;16.60;3.35;;;8.40;99.90;;;;;;4862477;29;20520;-77
2024/01/26 10:52:22;;;;;;;23.83;3.33;;;8.40;99.90;;;;;;4893788;29;20056;-76
2024/01/26 10:54:49;;;;;;;16.73;2.72;;;8.50;99.90;;;;;;4894534;29;20097;-75
2024/01/26 10:57:15;;;;;;;21.75;4.65;;;8.50;99.90;;;;;;4897272;29;20517;-77
2024/01/26 10:59:45;;;;;;;18.20;4.22;;;8.60;99.90;;;;;;4897474;29;20117;-77
2024/01/26 11:02:13;;;;;;;25.65;4.85;;;8.70;99.90;;;;;;4897203;29;20045;-77
2024/01/26 11:04:44;;;;;;;18.70;3.35;;;8.60;99.90;;;;;;4866346;29;20052;-77
2024/01/26 11:07:10;;;;;;;18.75;2.97;;;8.60;99.90;;;;;;4882966;29;20060;-77
2024/01/26 11:09:41;;;;;;;21.60;4.35;;;8.70;99.90;;;;;;4865916;29;20431;-76
2024/01/26 11:12:26;;;;;;;20.88;3.58;;;8.60;99.90;;;;;;4866010;29;20413;-76
2024/01/26 11:15:14;;;;;;;24.58;3.78;;;8.60;99.90;;;;;;4882770;29;20101;-76
2024/01/26 11:17:43;;;;;;;19.70;3.08;;;8.60;99.90;;;;;;4896928;29;20420;-77
2024/01/26 11:20:18;;;;;;;17.33;3.15;;;8.70;99.90;;;;;;4897198;29;20048;-76
2024/01/26 11:22:44;;;;;;;23.48;3.63;;;8.60;99.90;;;;;;4882591;29;20132;-75
2024/01/26 11:25:20;;;;;;;16.30;2.97;;;8.70;99.90;;;;;;4897334;29;20449;-76
2024/01/26 11:27:46;;;;;;;14.40;3.05;;;8.70;99.90;;;;;;4896799;29;20053;-76
2024/01/26 11:30:24;;;;;;;20.05;3.70;;;8.60;99.90;;;;;;4865585;29;20124;-76
2024/01/26 11:32:51;;;;;;;18.20;2.75;;;8.70;99.90;;;;;;4897029;29;20068;-76
2024/01/26 11:35:17;;;;;;;17.20;3.25;;;8.50;99.90;;;;;;4896832;29;20499;-76
2024/01/26 11:37:43;;;;;;;15.55;3.55;;;8.50;99.90;;;;;;4896653;29;20049;-76
2024/01/26 11:40:10;;;;;;;20.58;2.67;;;8.50;99.90;;;;;;4865409;29;20056;-76
2024/01/26 11:42:40;;;;;;;25.15;4.25;;;8.50;99.90;;;;;;4865500;29;20131;-76
2024/01/26 11:45:08;;;;;;;17.30;2.83;;;8.40;99.90;;;;;;4896945;29;20128;-76
2024/01/26 11:47:36;;;;;;;23.45;4.72;;;8.40;99.90;;;;;;4896421;29;20056;-77
2024/01/26 11:50:03;;;;;;;21.35;4.38;;;8.40;99.90;;;;;;4882137;29;20041;-75
2024/01/26 11:52:34;;;;;;;21.98;3.33;;;8.40;99.90;;;;;;4882150;29;20114;-77
2024/01/26 11:55:03;;;;;;;19.23;3.40;;;8.40;99.90;;;;;;4865538;29;20283;-78
2024/01/26 11:57:30;;;;;;;24.45;3.45;;;8.40;99.90;;;;;;4896381;29;20405;-78
2024/01/26 11:59:58;;;;;;;23.17;4.30;;;8.40;99.90;;;;;;4881827;29;20493;-77
2024/01/26 12:02:23;;;;;;;23.58;3.60;;;8.30;99.90;;;;;;4865140;29;20057;-80
2024/01/26 12:04:49;;;;;;;37.17;4.82;;;8.30;99.90;;;;;;4882081;29;20478;-76
2024/01/26 12:07:15;;;;;;;19.58;4.45;;;8.20;99.90;;;;;;4880857;29;20449;-76
2024/01/26 12:09:42;;;;;;;16.42;3.25;;;8.20;99.90;;;;;;4881569;29;20433;-76
2024/01/26 12:12:10;;;;;;;24.80;5.28;;;8.20;99.90;;;;;;4864836;29;20085;-77
2024/01/26 12:14:36;;;;;;;26.65;4.30;;;8.10;99.90;;;;;;4865122;29;20107;-77
2024/01/26 12:17:02;;;;;;;23.00;5.28;;;8.00;99.90;;;;;;4896331;29;20132;-77
2024/01/26 12:19:28;;;;;;;26.33;5.70;;;8.00;99.90;;;;;;4881652;29;20205;-76
2024/01/26 12:21:53;;;;;;;20.38;4.20;;;8.00;99.90;;;;;;4864631;29;20045;-76
2024/01/26 12:24:19;;;;;;;18.58;4.63;;;8.00;99.90;;;;;;4864927;29;20131;-75
2024/01/26 12:26:45;;;;;;;17.73;4.95;;;7.90;99.90;;;;;;4864628;29;20462;-76
2024/01/26 12:29:10;;;;;;;15.95;3.35;;;8.00;99.90;;;;;;4864650;29;20135;-75
2024/01/26 12:31:37;;;;;;;19.90;4.10;;;7.90;99.90;;;;;;4864592;29;20049;-75
2024/01/26 12:34:02;;;;;;;22.52;3.97;;;7.90;99.90;;;;;;4864738;29;20049;-75